sensor_id;sensor_type;location;lat;lon;timestamp;temperature;humidity
47791;DHT22;33547;49.044;1.156;2023-01-08T00:02:23;8.70;99.90
47791;DHT22;33547;49.044;1.156;2023-01-08T00:04:50;8.60;99.90
47791;DHT22;33547;49.044;1.156;2023-01-08T00:07:15;8.60;99.90
47791;DHT22;33547;49.044;1.156;2023-01-08T00:09:41;8.60;99.90
47791;DHT22;33547;49.044;1.156;2023-01-08T00:12:08;8.60;99.90
47791;DHT22;33547;49.044;1.156;2023-01-08T00:14:34;8.60;99.90
47791;DHT22;33547;49.044;1.156;2023-01-08T00:16:59;8.70;99.90
47791;DHT22;33547;49.044;1.156;2023-01-08T00:19:27;8.60;99.90
47791;DHT22;33547;49.044;1.156;2023-01-08T00:21:53;8.50;99.90
47791;DHT22;33547;49.044;1.156;2023-01-08T00:24:19;8.50;99.90
47791;DHT22;33547;49.044;1.156;2023-01-08T00:26:45;8.50;99.90
47791;DHT22;33547;49.044;1.156;2023-01-08T00:29:11;8.40;99.90
47791;DHT22;33547;49.044;1.156;2023-01-08T00:31:36;8.40;99.90
47791;DHT22;33547;49.044;1.156;2023-01-08T00:34:02;8.30;99.90
47791;DHT22;33547;49.044;1.156;2023-01-08T00:36:28;8.30;99.90
47791;DHT22;33547;49.044;1.156;2023-01-08T00:38:54;8.20;99.90
47791;DHT22;33547;49.044;1.156;2023-01-08T00:41:19;8.20;99.90
47791;DHT22;33547;49.044;1.156;2023-01-08T00:43:45;8.10;99.90
47791;DHT22;33547;49.044;1.156;2023-01-08T00:46:11;8.20;99.90
47791;DHT22;33547;49.044;1.156;2023-01-08T00:48:37;8.10;99.90
47791;DHT22;33547;49.044;1.156;2023-01-08T00:51:04;8.00;99.90
47791;DHT22;33547;49.044;1.156;2023-01-08T00:53:31;7.90;99.90
47791;DHT22;33547;49.044;1.156;2023-01-08T00:56:07;7.80;99.90
47791;DHT22;33547;49.044;1.156;2023-01-08T00:58:34;7.90;99.90
47791;DHT22;33547;49.044;1.156;2023-01-08T01:01:00;7.90;99.90
47791;DHT22;33547;49.044;1.156;2023-01-08T01:03:26;8.00;99.90
47791;DHT22;33547;49.044;1.156;2023-01-08T01:06:05;8.00;99.90
47791;DHT22;33547;49.044;1.156;2023-01-08T01:08:32;8.00;99.90
47791;DHT22;33547;49.044;1.156;2023-01-08T01:10:59;8.00;99.90
47791;DHT22;33547;49.044;1.156;2023-01-08T01:13:25;8.00;99.90
47791;DHT22;33547;49.044;1.156;2023-01-08T01:15:58;8.00;99.90
47791;DHT22;33547;49.044;1.156;2023-01-08T01:18:25;8.00;99.90
47791;DHT22;33547;49.044;1.156;2023-01-08T01:20:50;7.90;99.90
47791;DHT22;33547;49.044;1.156;2023-01-08T01:23:16;8.00;99.90
47791;DHT22;33547;49.044;1.156;2023-01-08T01:25:42;7.90;99.90
47791;DHT22;33547;49.044;1.156;2023-01-08T01:28:08;7.90;99.90
47791;DHT22;33547;49.044;1.156;2023-01-08T01:30:34;7.80;99.90
47791;DHT22;33547;49.044;1.156;2023-01-08T01:32:59;7.80;99.90
47791;DHT22;33547;49.044;1.156;2023-01-08T01:35:25;7.80;99.90
47791;DHT22;33547;49.044;1.156;2023-01-08T01:37:51;7.70;99.90
47791;DHT22;33547;49.044;1.156;2023-01-08T01:40:17;7.70;99.90
47791;DHT22;33547;49.044;1.156;2023-01-08T01:42:42;7.60;99.90
47791;DHT22;33547;49.044;1.156;2023-01-08T01:45:23;7.60;99.90
47791;DHT22;33547;49.044;1.156;2023-01-08T01:48:05;7.60;99.90
47791;DHT22;33547;49.044;1.156;2023-01-08T01:50:45;7.50;99.90
47791;DHT22;33547;49.044;1.156;2023-01-08T01:53:21;7.60;99.90
47791;DHT22;33547;49.044;1.156;2023-01-08T01:55:55;7.60;99.90
47791;DHT22;33547;49.044;1.156;2023-01-08T01:58:27;7.50;99.90
47791;DHT22;33547;49.044;1.156;2023-01-08T02:00:57;7.50;99.90
47791;DHT22;33547;49.044;1.156;2023-01-08T02:03:27;7.50;99.90
47791;DHT22;33547;49.044;1.156;2023-01-08T02:12:15;7.40;99.90
47791;DHT22;33547;49.044;1.156;2023-01-08T02:20:38;7.50;99.90
47791;DHT22;33547;49.044;1.156;2023-01-08T02:26:09;7.50;99.90
47791;DHT22;33547;49.044;1.156;2023-01-08T02:29:15;7.40;99.90
47791;DHT22;33547;49.044;1.156;2023-01-08T02:31:43;7.40;99.90
47791;DHT22;33547;49.044;1.156;2023-01-08T02:34:10;7.40;99.90
47791;DHT22;33547;49.044;1.156;2023-01-08T02:36:40;7.40;99.90
47791;DHT22;33547;49.044;1.156;2023-01-08T02:42:31;7.50;99.90
47791;DHT22;33547;49.044;1.156;2023-01-08T02:51:09;7.70;99.90
47791;DHT22;33547;49.044;1.156;2023-01-08T02:53:47;7.70;99.90
47791;DHT22;33547;49.044;1.156;2023-01-08T02:56:18;7.70;99.90
47791;DHT22;33547;49.044;1.156;2023-01-08T02:58:48;7.70;99.90
47791;DHT22;33547;49.044;1.156;2023-01-08T03:01:17;7.80;99.90
47791;DHT22;33547;49.044;1.156;2023-01-08T03:03:48;7.80;99.90
47791;DHT22;33547;49.044;1.156;2023-01-08T03:06:18;7.80;99.90
47791;DHT22;33547;49.044;1.156;2023-01-08T03:08:50;7.90;99.90
47791;DHT22;33547;49.044;1.156;2023-01-08T03:11:20;7.90;99.90
47791;DHT22;33547;49.044;1.156;2023-01-08T03:13:52;7.90;99.90
47791;DHT22;33547;49.044;1.156;2023-01-08T03:16:46;8.00;99.90
47791;DHT22;33547;49.044;1.156;2023-01-08T03:19:18;8.00;99.90
47791;DHT22;33547;49.044;1.156;2023-01-08T03:21:49;7.90;99.90
47791;DHT22;33547;49.044;1.156;2023-01-08T03:24:24;7.90;99.90
47791;DHT22;33547;49.044;1.156;2023-01-08T03:26:59;7.90;99.90
47791;DHT22;33547;49.044;1.156;2023-01-08T03:29:27;7.90;99.90
47791;DHT22;33547;49.044;1.156;2023-01-08T03:31:57;7.90;99.90
47791;DHT22;33547;49.044;1.156;2023-01-08T03:34:26;8.00;99.90
47791;DHT22;33547;49.044;1.156;2023-01-08T03:36:57;8.00;99.90
47791;DHT22;33547;49.044;1.156;2023-01-08T03:40:12;8.00;99.90
47791;DHT22;33547;49.044;1.156;2023-01-08T03:42:24;8.10;99.90
47791;DHT22;33547;49.044;1.156;2023-01-08T03:44:51;8.00;99.90
47791;DHT22;33547;49.044;1.156;2023-01-08T03:47:19;8.00;99.90
47791;DHT22;33547;49.044;1.156;2023-01-08T03:49:48;8.00;99.90
47791;DHT22;33547;49.044;1.156;2023-01-08T03:52:26;8.10;99.90
47791;DHT22;33547;49.044;1.156;2023-01-08T03:54:54;8.10;99.90
47791;DHT22;33547;49.044;1.156;2023-01-08T03:57:20;8.10;99.90
47791;DHT22;33547;49.044;1.156;2023-01-08T03:59:46;8.10;99.90
47791;DHT22;33547;49.044;1.156;2023-01-08T04:02:13;8.10;99.90
47791;DHT22;33547;49.044;1.156;2023-01-08T04:04:39;8.00;99.90
47791;DHT22;33547;49.044;1.156;2023-01-08T04:07:06;8.00;99.90
47791;DHT22;33547;49.044;1.156;2023-01-08T04:09:32;7.90;99.90
47791;DHT22;33547;49.044;1.156;2023-01-08T04:11:58;7.90;99.90
47791;DHT22;33547;49.044;1.156;2023-01-08T04:14:23;7.80;99.90
47791;DHT22;33547;49.044;1.156;2023-01-08T04:16:49;7.80;99.90
47791;DHT22;33547;49.044;1.156;2023-01-08T04:19:15;7.80;99.90
47791;DHT22;33547;49.044;1.156;2023-01-08T04:21:41;7.80;99.90
47791;DHT22;33547;49.044;1.156;2023-01-08T04:24:06;7.80;99.90
47791;DHT22;33547;49.044;1.156;2023-01-08T04:26:32;7.70;99.90
47791;DHT22;33547;49.044;1.156;2023-01-08T04:29:01;7.70;99.90
47791;DHT22;33547;49.044;1.156;2023-01-08T04:31:28;7.60;99.90
47791;DHT22;33547;49.044;1.156;2023-01-08T04:33:54;7.60;99.90
47791;DHT22;33547;49.044;1.156;2023-01-08T04:36:20;7.50;99.90
47791;DHT22;33547;49.044;1.156;2023-01-08T04:38:46;7.50;99.90
47791;DHT22;33547;49.044;1.156;2023-01-08T04:41:12;7.40;99.90
47791;DHT22;33547;49.044;1.156;2023-01-08T04:43:37;7.40;99.90
47791;DHT22;33547;49.044;1.156;2023-01-08T04:46:04;7.40;99.90
47791;DHT22;33547;49.044;1.156;2023-01-08T04:48:34;7.40;99.90
47791;DHT22;33547;49.044;1.156;2023-01-08T04:51:01;7.30;99.90
47791;DHT22;33547;49.044;1.156;2023-01-08T04:53:28;7.20;99.90
47791;DHT22;33547;49.044;1.156;2023-01-08T04:55:54;7.20;99.90
47791;DHT22;33547;49.044;1.156;2023-01-08T04:58:20;7.10;99.90
47791;DHT22;33547;49.044;1.156;2023-01-08T05:00:46;7.10;99.90
47791;DHT22;33547;49.044;1.156;2023-01-08T05:03:12;7.00;99.90
47791;DHT22;33547;49.044;1.156;2023-01-08T05:05:39;7.00;99.90
47791;DHT22;33547;49.044;1.156;2023-01-08T05:08:05;7.00;99.90
47791;DHT22;33547;49.044;1.156;2023-01-08T05:10:30;6.90;99.90
47791;DHT22;33547;49.044;1.156;2023-01-08T05:12:58;6.90;99.90
47791;DHT22;33547;49.044;1.156;2023-01-08T05:15:25;6.80;99.90
47791;DHT22;33547;49.044;1.156;2023-01-08T05:18:02;6.80;99.90
47791;DHT22;33547;49.044;1.156;2023-01-08T05:20:30;6.80;99.90
47791;DHT22;33547;49.044;1.156;2023-01-08T05:22:56;6.70;99.90
47791;DHT22;33547;49.044;1.156;2023-01-08T05:25:23;6.70;99.90
47791;DHT22;33547;49.044;1.156;2023-01-08T05:27:49;6.60;99.90
47791;DHT22;33547;49.044;1.156;2023-01-08T05:30:15;6.70;99.90
47791;DHT22;33547;49.044;1.156;2023-01-08T05:32:41;6.70;99.90
47791;DHT22;33547;49.044;1.156;2023-01-08T05:35:07;6.60;99.90
47791;DHT22;33547;49.044;1.156;2023-01-08T05:37:34;6.60;99.90
47791;DHT22;33547;49.044;1.156;2023-01-08T05:40:00;6.60;99.90
47791;DHT22;33547;49.044;1.156;2023-01-08T05:42:26;6.50;99.90
47791;DHT22;33547;49.044;1.156;2023-01-08T05:44:52;6.50;99.90
47791;DHT22;33547;49.044;1.156;2023-01-08T05:47:18;6.50;99.90
47791;DHT22;33547;49.044;1.156;2023-01-08T05:49:44;6.50;99.90
47791;DHT22;33547;49.044;1.156;2023-01-08T05:52:09;6.50;99.90
47791;DHT22;33547;49.044;1.156;2023-01-08T05:54:35;6.50;99.90
47791;DHT22;33547;49.044;1.156;2023-01-08T05:57:01;6.50;99.90
47791;DHT22;33547;49.044;1.156;2023-01-08T05:59:27;6.50;99.90
47791;DHT22;33547;49.044;1.156;2023-01-08T06:01:53;6.50;99.90
47791;DHT22;33547;49.044;1.156;2023-01-08T06:04:18;6.50;99.90
47791;DHT22;33547;49.044;1.156;2023-01-08T06:06:44;6.50;99.90
47791;DHT22;33547;49.044;1.156;2023-01-08T06:09:10;6.50;99.90
47791;DHT22;33547;49.044;1.156;2023-01-08T06:11:36;6.50;99.90
47791;DHT22;33547;49.044;1.156;2023-01-08T06:14:02;6.50;99.90
47791;DHT22;33547;49.044;1.156;2023-01-08T06:16:28;6.50;99.90
47791;DHT22;33547;49.044;1.156;2023-01-08T06:18:54;6.60;99.90
47791;DHT22;33547;49.044;1.156;2023-01-08T06:21:19;6.50;99.90
47791;DHT22;33547;49.044;1.156;2023-01-08T06:23:45;6.50;99.90
47791;DHT22;33547;49.044;1.156;2023-01-08T06:26:11;6.50;99.90
47791;DHT22;33547;49.044;1.156;2023-01-08T06:28:37;6.50;99.90
47791;DHT22;33547;49.044;1.156;2023-01-08T06:31:03;6.60;99.90
47791;DHT22;33547;49.044;1.156;2023-01-08T06:33:29;6.60;99.90
47791;DHT22;33547;49.044;1.156;2023-01-08T06:36:02;6.50;99.90
47791;DHT22;33547;49.044;1.156;2023-01-08T06:38:35;6.50;99.90
47791;DHT22;33547;49.044;1.156;2023-01-08T06:41:08;6.50;99.90
47791;DHT22;33547;49.044;1.156;2023-01-08T06:43:36;6.50;99.90
47791;DHT22;33547;49.044;1.156;2023-01-08T06:46:04;6.50;99.90
47791;DHT22;33547;49.044;1.156;2023-01-08T06:48:30;6.50;99.90
47791;DHT22;33547;49.044;1.156;2023-01-08T06:50:59;6.50;99.90
47791;DHT22;33547;49.044;1.156;2023-01-08T06:53:25;6.50;99.90
47791;DHT22;33547;49.044;1.156;2023-01-08T06:55:51;6.50;99.90
47791;DHT22;33547;49.044;1.156;2023-01-08T06:58:22;6.50;99.90
47791;DHT22;33547;49.044;1.156;2023-01-08T07:00:48;6.50;99.90
47791;DHT22;33547;49.044;1.156;2023-01-08T07:03:14;6.50;99.90
47791;DHT22;33547;49.044;1.156;2023-01-08T07:05:40;6.50;99.90
47791;DHT22;33547;49.044;1.156;2023-01-08T07:08:10;6.50;99.90
47791;DHT22;33547;49.044;1.156;2023-01-08T07:10:37;6.40;99.90
47791;DHT22;33547;49.044;1.156;2023-01-08T07:13:02;6.40;99.90
47791;DHT22;33547;49.044;1.156;2023-01-08T07:15:28;6.50;99.90
47791;DHT22;33547;49.044;1.156;2023-01-08T07:17:54;6.50;99.90
47791;DHT22;33547;49.044;1.156;2023-01-08T07:20:20;6.50;99.90
47791;DHT22;33547;49.044;1.156;2023-01-08T07:22:45;6.50;99.90
47791;DHT22;33547;49.044;1.156;2023-01-08T07:25:11;6.40;99.90
47791;DHT22;33547;49.044;1.156;2023-01-08T07:27:37;6.40;99.90
47791;DHT22;33547;49.044;1.156;2023-01-08T07:30:04;6.40;99.90
47791;DHT22;33547;49.044;1.156;2023-01-08T07:32:30;6.40;99.90
47791;DHT22;33547;49.044;1.156;2023-01-08T07:34:56;6.40;99.90
47791;DHT22;33547;49.044;1.156;2023-01-08T07:37:24;6.50;99.90
47791;DHT22;33547;49.044;1.156;2023-01-08T07:39:50;6.50;99.90
47791;DHT22;33547;49.044;1.156;2023-01-08T07:42:18;6.50;99.90
47791;DHT22;33547;49.044;1.156;2023-01-08T07:44:44;6.50;99.90
47791;DHT22;33547;49.044;1.156;2023-01-08T07:47:10;6.50;99.90
47791;DHT22;33547;49.044;1.156;2023-01-08T07:49:35;6.50;99.90
47791;DHT22;33547;49.044;1.156;2023-01-08T07:52:01;6.50;99.90
47791;DHT22;33547;49.044;1.156;2023-01-08T07:54:27;6.50;99.90
47791;DHT22;33547;49.044;1.156;2023-01-08T07:56:53;6.50;99.90
47791;DHT22;33547;49.044;1.156;2023-01-08T07:59:19;6.60;99.90
47791;DHT22;33547;49.044;1.156;2023-01-08T08:01:45;6.60;99.90
47791;DHT22;33547;49.044;1.156;2023-01-08T08:04:13;6.60;99.90
47791;DHT22;33547;49.044;1.156;2023-01-08T08:06:40;6.60;99.90
47791;DHT22;33547;49.044;1.156;2023-01-08T08:09:06;6.70;99.90
47791;DHT22;33547;49.044;1.156;2023-01-08T08:11:32;6.70;99.90
47791;DHT22;33547;49.044;1.156;2023-01-08T08:13:57;6.70;99.90
47791;DHT22;33547;49.044;1.156;2023-01-08T08:16:23;6.80;99.90
47791;DHT22;33547;49.044;1.156;2023-01-08T08:18:49;6.90;99.90
47791;DHT22;33547;49.044;1.156;2023-01-08T08:21:15;7.00;99.90
47791;DHT22;33547;49.044;1.156;2023-01-08T08:23:40;7.00;99.90
47791;DHT22;33547;49.044;1.156;2023-01-08T08:26:06;7.00;99.90
47791;DHT22;33547;49.044;1.156;2023-01-08T08:28:32;7.10;99.90
47791;DHT22;33547;49.044;1.156;2023-01-08T08:30:58;7.10;99.90
47791;DHT22;33547;49.044;1.156;2023-01-08T08:33:24;7.10;99.90
47791;DHT22;33547;49.044;1.156;2023-01-08T08:35:49;7.10;99.90
47791;DHT22;33547;49.044;1.156;2023-01-08T08:38:16;7.30;99.90
47791;DHT22;33547;49.044;1.156;2023-01-08T08:40:42;7.60;99.90
47791;DHT22;33547;49.044;1.156;2023-01-08T08:43:08;7.80;99.90
47791;DHT22;33547;49.044;1.156;2023-01-08T08:45:34;8.00;99.90
47791;DHT22;33547;49.044;1.156;2023-01-08T08:48:01;8.80;99.90
47791;DHT22;33547;49.044;1.156;2023-01-08T08:50:27;8.80;99.90
47791;DHT22;33547;49.044;1.156;2023-01-08T08:53:01;8.30;99.90
47791;DHT22;33547;49.044;1.156;2023-01-08T08:55:28;8.90;99.90
47791;DHT22;33547;49.044;1.156;2023-01-08T08:57:53;9.80;99.90
47791;DHT22;33547;49.044;1.156;2023-01-08T09:00:19;10.30;99.90
47791;DHT22;33547;49.044;1.156;2023-01-08T09:02:45;11.10;99.90
47791;DHT22;33547;49.044;1.156;2023-01-08T09:05:14;11.80;99.90
47791;DHT22;33547;49.044;1.156;2023-01-08T09:07:40;11.80;99.90
47791;DHT22;33547;49.044;1.156;2023-01-08T09:10:06;11.40;99.90
47791;DHT22;33547;49.044;1.156;2023-01-08T09:12:32;11.20;99.90
47791;DHT22;33547;49.044;1.156;2023-01-08T09:14:58;11.30;99.90
47791;DHT22;33547;49.044;1.156;2023-01-08T09:17:24;12.00;99.90
47791;DHT22;33547;49.044;1.156;2023-01-08T09:19:50;11.50;99.90
47791;DHT22;33547;49.044;1.156;2023-01-08T09:22:16;11.80;99.90
47791;DHT22;33547;49.044;1.156;2023-01-08T09:24:42;11.70;99.90
47791;DHT22;33547;49.044;1.156;2023-01-08T09:27:07;11.50;99.90
47791;DHT22;33547;49.044;1.156;2023-01-08T09:29:33;11.50;99.90
47791;DHT22;33547;49.044;1.156;2023-01-08T09:31:59;11.80;99.90
47791;DHT22;33547;49.044;1.156;2023-01-08T09:34:26;11.70;99.90
47791;DHT22;33547;49.044;1.156;2023-01-08T09:36:52;11.00;99.90
47791;DHT22;33547;49.044;1.156;2023-01-08T09:39:18;10.60;99.90
47791;DHT22;33547;49.044;1.156;2023-01-08T09:41:45;9.90;99.90
47791;DHT22;33547;49.044;1.156;2023-01-08T09:44:19;9.60;99.90
47791;DHT22;33547;49.044;1.156;2023-01-08T09:46:48;9.70;99.90
47791;DHT22;33547;49.044;1.156;2023-01-08T09:49:24;9.50;99.90
47791;DHT22;33547;49.044;1.156;2023-01-08T09:52:03;9.30;99.90
47791;DHT22;33547;49.044;1.156;2023-01-08T09:54:29;9.00;99.90
47791;DHT22;33547;49.044;1.156;2023-01-08T09:56:55;8.90;99.90
47791;DHT22;33547;49.044;1.156;2023-01-08T09:59:23;9.00;99.90
47791;DHT22;33547;49.044;1.156;2023-01-08T10:01:51;9.30;99.90
47791;DHT22;33547;49.044;1.156;2023-01-08T10:04:25;9.30;99.90
47791;DHT22;33547;49.044;1.156;2023-01-08T10:07:04;9.40;99.90
47791;DHT22;33547;49.044;1.156;2023-01-08T10:09:36;9.40;99.90
47791;DHT22;33547;49.044;1.156;2023-01-08T10:12:03;9.50;99.90
47791;DHT22;33547;49.044;1.156;2023-01-08T10:14:35;9.70;99.90
47791;DHT22;33547;49.044;1.156;2023-01-08T10:19:45;11.60;99.90
47791;DHT22;33547;49.044;1.156;2023-01-08T10:22:14;12.00;99.90
47791;DHT22;33547;49.044;1.156;2023-01-08T10:24:42;11.80;99.90
47791;DHT22;33547;49.044;1.156;2023-01-08T10:27:12;12.40;99.90
47791;DHT22;33547;49.044;1.156;2023-01-08T10:29:41;13.90;99.90
47791;DHT22;33547;49.044;1.156;2023-01-08T10:32:11;14.80;99.90
47791;DHT22;33547;49.044;1.156;2023-01-08T10:34:49;16.30;99.90
47791;DHT22;33547;49.044;1.156;2023-01-08T10:37:28;14.80;99.90
47791;DHT22;33547;49.044;1.156;2023-01-08T10:40:03;13.40;99.90
47791;DHT22;33547;49.044;1.156;2023-01-08T10:42:34;13.00;99.90
47791;DHT22;33547;49.044;1.156;2023-01-08T10:45:18;15.20;99.90
47791;DHT22;33547;49.044;1.156;2023-01-08T10:47:47;13.60;99.90
47791;DHT22;33547;49.044;1.156;2023-01-08T10:50:23;14.50;99.90
47791;DHT22;33547;49.044;1.156;2023-01-08T10:52:54;15.80;99.90
47791;DHT22;33547;49.044;1.156;2023-01-08T10:55:33;13.50;99.90
47791;DHT22;33547;49.044;1.156;2023-01-08T11:00:36;13.00;99.90
47791;DHT22;33547;49.044;1.156;2023-01-08T11:03:08;14.30;99.90
47791;DHT22;33547;49.044;1.156;2023-01-08T11:05:49;13.60;99.90
47791;DHT22;33547;49.044;1.156;2023-01-08T11:08:17;14.10;99.90
47791;DHT22;33547;49.044;1.156;2023-01-08T11:10:56;13.10;99.90
47791;DHT22;33547;49.044;1.156;2023-01-08T11:13:23;12.50;99.90
47791;DHT22;33547;49.044;1.156;2023-01-08T11:16:08;12.40;99.90
47791;DHT22;33547;49.044;1.156;2023-01-08T11:18:55;12.10;99.90
47791;DHT22;33547;49.044;1.156;2023-01-08T11:21:25;11.80;99.90
47791;DHT22;33547;49.044;1.156;2023-01-08T11:24:17;11.50;99.90
47791;DHT22;33547;49.044;1.156;2023-01-08T11:26:49;11.30;99.90
47791;DHT22;33547;49.044;1.156;2023-01-08T11:37:52;10.60;99.90
47791;DHT22;33547;49.044;1.156;2023-01-08T11:55:16;16.50;99.90
47791;DHT22;33547;49.044;1.156;2023-01-08T12:03:53;13.70;99.90
47791;DHT22;33547;49.044;1.156;2023-01-08T12:09:48;12.50;99.90
47791;DHT22;33547;49.044;1.156;2023-01-08T12:22:18;11.90;99.90
47791;DHT22;33547;49.044;1.156;2023-01-08T12:25:21;11.60;99.90
47791;DHT22;33547;49.044;1.156;2023-01-08T12:31:11;11.40;99.90
47791;DHT22;33547;49.044;1.156;2023-01-08T12:34:17;11.30;99.90
47791;DHT22;33547;49.044;1.156;2023-01-08T12:36:51;11.50;99.90
47791;DHT22;33547;49.044;1.156;2023-01-08T12:39:32;11.60;99.90
47791;DHT22;33547;49.044;1.156;2023-01-08T12:42:13;11.30;99.90
47791;DHT22;33547;49.044;1.156;2023-01-08T12:44:43;11.30;99.90
47791;DHT22;33547;49.044;1.156;2023-01-08T12:47:15;11.20;99.90
47791;DHT22;33547;49.044;1.156;2023-01-08T12:49:55;11.20;99.90
47791;DHT22;33547;49.044;1.156;2023-01-08T12:52:39;11.40;99.90
47791;DHT22;33547;49.044;1.156;2023-01-08T12:55:29;11.50;99.90
47791;DHT22;33547;49.044;1.156;2023-01-08T13:03:53;11.50;99.90
47791;DHT22;33547;49.044;1.156;2023-01-08T13:06:20;11.40;99.90
47791;DHT22;33547;49.044;1.156;2023-01-08T13:08:54;11.20;99.90
47791;DHT22;33547;49.044;1.156;2023-01-08T13:11:34;11.20;99.90
47791;DHT22;33547;49.044;1.156;2023-01-08T13:14:09;11.30;99.90
47791;DHT22;33547;49.044;1.156;2023-01-08T13:16:40;11.40;99.90
47791;DHT22;33547;49.044;1.156;2023-01-08T13:19:30;11.40;99.90
47791;DHT22;33547;49.044;1.156;2023-01-08T13:22:02;11.30;99.90
47791;DHT22;33547;49.044;1.156;2023-01-08T13:24:37;11.30;99.90
47791;DHT22;33547;49.044;1.156;2023-01-08T13:27:11;11.30;99.90
47791;DHT22;33547;49.044;1.156;2023-01-08T13:29:51;11.20;99.90
47791;DHT22;33547;49.044;1.156;2023-01-08T13:32:46;11.20;99.90
47791;DHT22;33547;49.044;1.156;2023-01-08T13:37:47;11.70;99.90
47791;DHT22;33547;49.044;1.156;2023-01-08T13:43:05;11.60;99.90
47791;DHT22;33547;49.044;1.156;2023-01-08T13:48:34;11.40;99.90
47791;DHT22;33547;49.044;1.156;2023-01-08T13:51:02;11.50;99.90
47791;DHT22;33547;49.044;1.156;2023-01-08T13:53:28;11.40;99.90
47791;DHT22;33547;49.044;1.156;2023-01-08T13:56:04;11.40;99.90
47791;DHT22;33547;49.044;1.156;2023-01-08T13:58:35;11.40;99.90
47791;DHT22;33547;49.044;1.156;2023-01-08T14:01:12;11.50;99.90
47791;DHT22;33547;49.044;1.156;2023-01-08T14:03:45;11.60;99.90
47791;DHT22;33547;49.044;1.156;2023-01-08T14:06:22;11.50;99.90
47791;DHT22;33547;49.044;1.156;2023-01-08T14:08:55;11.50;99.90
47791;DHT22;33547;49.044;1.156;2023-01-08T14:13:55;11.40;99.90
47791;DHT22;33547;49.044;1.156;2023-01-08T14:16:21;11.50;99.90
47791;DHT22;33547;49.044;1.156;2023-01-08T14:18:49;11.40;99.90
47791;DHT22;33547;49.044;1.156;2023-01-08T14:21:20;11.40;99.90
47791;DHT22;33547;49.044;1.156;2023-01-08T14:23:48;11.30;99.90
47791;DHT22;33547;49.044;1.156;2023-01-08T14:26:35;11.20;99.90
47791;DHT22;33547;49.044;1.156;2023-01-08T14:29:17;11.30;99.90
47791;DHT22;33547;49.044;1.156;2023-01-08T14:31:47;11.20;99.90
47791;DHT22;33547;49.044;1.156;2023-01-08T14:34:14;11.30;99.90
47791;DHT22;33547;49.044;1.156;2023-01-08T14:36:41;11.50;99.90
47791;DHT22;33547;49.044;1.156;2023-01-08T14:39:12;11.60;99.90
47791;DHT22;33547;49.044;1.156;2023-01-08T14:41:47;11.40;99.90
47791;DHT22;33547;49.044;1.156;2023-01-08T14:44:32;11.40;99.90
47791;DHT22;33547;49.044;1.156;2023-01-08T14:46:58;11.40;99.90
47791;DHT22;33547;49.044;1.156;2023-01-08T14:49:30;11.30;99.90
47791;DHT22;33547;49.044;1.156;2023-01-08T14:51:58;11.10;99.90
47791;DHT22;33547;49.044;1.156;2023-01-08T14:54:31;11.10;99.90
47791;DHT22;33547;49.044;1.156;2023-01-08T14:56:59;11.10;99.90
47791;DHT22;33547;49.044;1.156;2023-01-08T14:59:34;11.00;99.90
47791;DHT22;33547;49.044;1.156;2023-01-08T15:02:02;10.90;99.90
47791;DHT22;33547;49.044;1.156;2023-01-08T15:04:29;10.90;99.90
47791;DHT22;33547;49.044;1.156;2023-01-08T15:07:07;10.90;99.90
47791;DHT22;33547;49.044;1.156;2023-01-08T15:09:40;10.90;99.90
47791;DHT22;33547;49.044;1.156;2023-01-08T15:12:20;10.80;99.90
47791;DHT22;33547;49.044;1.156;2023-01-08T15:14:48;10.80;99.90
47791;DHT22;33547;49.044;1.156;2023-01-08T15:17:17;10.70;99.90
47791;DHT22;33547;49.044;1.156;2023-01-08T15:19:51;10.70;99.90
47791;DHT22;33547;49.044;1.156;2023-01-08T15:22:26;10.70;99.90
47791;DHT22;33547;49.044;1.156;2023-01-08T15:25:00;10.70;99.90
47791;DHT22;33547;49.044;1.156;2023-01-08T15:27:28;10.70;99.90
47791;DHT22;33547;49.044;1.156;2023-01-08T15:29:56;10.70;99.90
47791;DHT22;33547;49.044;1.156;2023-01-08T15:32:35;10.60;99.90
47791;DHT22;33547;49.044;1.156;2023-01-08T15:35:15;10.60;99.90
47791;DHT22;33547;49.044;1.156;2023-01-08T15:37:42;10.60;99.90
47791;DHT22;33547;49.044;1.156;2023-01-08T15:40:09;10.60;99.90
47791;DHT22;33547;49.044;1.156;2023-01-08T15:42:36;10.50;99.90
47791;DHT22;33547;49.044;1.156;2023-01-08T15:45:24;10.50;99.90
47791;DHT22;33547;49.044;1.156;2023-01-08T15:47:55;10.60;99.90
47791;DHT22;33547;49.044;1.156;2023-01-08T15:50:22;10.50;99.90
47791;DHT22;33547;49.044;1.156;2023-01-08T15:52:49;10.50;99.90
47791;DHT22;33547;49.044;1.156;2023-01-08T15:55:20;10.50;99.90
47791;DHT22;33547;49.044;1.156;2023-01-08T15:57:47;10.50;99.90
47791;DHT22;33547;49.044;1.156;2023-01-08T16:00:14;10.40;99.90
47791;DHT22;33547;49.044;1.156;2023-01-08T16:02:43;10.40;99.90
47791;DHT22;33547;49.044;1.156;2023-01-08T16:05:11;10.40;99.90
47791;DHT22;33547;49.044;1.156;2023-01-08T16:07:37;10.30;99.90
47791;DHT22;33547;49.044;1.156;2023-01-08T16:10:04;10.30;99.90
47791;DHT22;33547;49.044;1.156;2023-01-08T16:12:30;10.30;99.90
47791;DHT22;33547;49.044;1.156;2023-01-08T16:14:56;10.30;99.90
47791;DHT22;33547;49.044;1.156;2023-01-08T16:17:22;10.30;99.90
47791;DHT22;33547;49.044;1.156;2023-01-08T16:19:48;10.30;99.90
47791;DHT22;33547;49.044;1.156;2023-01-08T16:22:13;10.30;99.90
47791;DHT22;33547;49.044;1.156;2023-01-08T16:24:39;10.30;99.90
47791;DHT22;33547;49.044;1.156;2023-01-08T16:27:05;10.30;99.90
47791;DHT22;33547;49.044;1.156;2023-01-08T16:29:32;10.30;99.90
47791;DHT22;33547;49.044;1.156;2023-01-08T16:31:58;10.30;99.90
47791;DHT22;33547;49.044;1.156;2023-01-08T16:34:24;10.30;99.90
47791;DHT22;33547;49.044;1.156;2023-01-08T16:36:50;10.20;99.90
47791;DHT22;33547;49.044;1.156;2023-01-08T16:39:16;10.30;99.90
47791;DHT22;33547;49.044;1.156;2023-01-08T16:41:42;10.20;99.90
47791;DHT22;33547;49.044;1.156;2023-01-08T16:44:20;10.30;99.90
47791;DHT22;33547;49.044;1.156;2023-01-08T16:46:47;10.20;99.90
47791;DHT22;33547;49.044;1.156;2023-01-08T16:49:13;10.20;99.90
47791;DHT22;33547;49.044;1.156;2023-01-08T16:51:39;10.20;99.90
47791;DHT22;33547;49.044;1.156;2023-01-08T16:54:05;10.20;99.90
47791;DHT22;33547;49.044;1.156;2023-01-08T16:56:31;10.30;99.90
47791;DHT22;33547;49.044;1.156;2023-01-08T16:58:57;10.30;99.90
47791;DHT22;33547;49.044;1.156;2023-01-08T17:01:23;10.30;99.90
47791;DHT22;33547;49.044;1.156;2023-01-08T17:03:49;10.20;99.90
47791;DHT22;33547;49.044;1.156;2023-01-08T17:06:15;10.30;99.90
47791;DHT22;33547;49.044;1.156;2023-01-08T17:08:41;10.30;99.90
47791;DHT22;33547;49.044;1.156;2023-01-08T17:11:08;10.20;99.90
47791;DHT22;33547;49.044;1.156;2023-01-08T17:13:38;10.20;99.90
47791;DHT22;33547;49.044;1.156;2023-01-08T17:16:05;10.20;99.90
47791;DHT22;33547;49.044;1.156;2023-01-08T17:18:33;10.00;99.90
47791;DHT22;33547;49.044;1.156;2023-01-08T17:20:58;10.00;99.90
47791;DHT22;33547;49.044;1.156;2023-01-08T17:23:24;9.60;99.90
47791;DHT22;33547;49.044;1.156;2023-01-08T17:25:54;9.10;99.90
47791;DHT22;33547;49.044;1.156;2023-01-08T17:28:22;8.50;99.90